Kirksville Regional Airport Kirksville US
ICAO: KIRK
IATA: IRK
Category: Medium
Scheduled Services: Yes

Elevation: 966 ft
TransAlt. 18000 ft.

Airport Communications:
ASOS:121.125
KANSAS CITY CNTR:132.6
COLUMBIA RDO:122.2
CTAF/UNICOM:122.8

KIRK Zoom In..

Runways:

(A) RW 09 length 1370 ft width 100 ft
---- / hdg 88

(B) RW 18 length 6005 ft width 100 ft
---- / hdg 177

(C) RW 27 length 1370 ft width 100 ft
---- / hdg 268

(D) RW 36 length 6005 ft width 100 ft
ILS 111.50 / hdg 357

Location; KIRK
Day. 19 / Time. 19.55 Zulu
* Altimeter: 29.82
* Temperature: 28° c. 82.4°f.
* Wind from: 210° Speed 10 kn.
Dewpoint: 23° c.
Visibility: 10 Statute Miles.
Clouds: Clear (automated report).

KIRK 191955Z AUTO 21010KT 10SM CLR 28/23 A2982 RMK AO2 RAB1858E14 TSB1859E20 SLP091 P0008 T02830233


Wind From 210°
Speed 10 kn.

 
 
jpsmedia.com for Web Design worldairports.se 2018   terms of use